Time;durP1;ratioP1;P1;durP2;ratioP2;P2;SDS_P1;SDS_P2;PMS_P1;PMS_P2;Temp;Humidity;BMP_temperature;BMP_pressure;BME280_temperature;BME280_humidity;BME280_pressure;Samples;Min_cycle;Max_cycle;Signal;HPM_P1;HPM_P2
2023/08/18 04:08:13;;;;;;;5.45;2.78;;;;;;;19.58;69.53;96703.22;796972;23;20364;-83
2023/08/18 04:11:12;;;;;;;3.55;2.80;;;;;;;19.43;69.89;96711.69;4953434;28;20047;-81
2023/08/18 04:13:57;;;;;;;5.30;3.03;;;;;;;19.30;70.18;96712.75;4960582;28;20043;-80
2023/08/18 04:23:12;;;;;;;6.78;2.60;;;;;;;19.08;71.04;96719.72;5053402;23;20063;-80
2023/08/18 04:29:11;;;;;;;3.67;2.45;;;;;;;19.02;71.11;96733.84;5129748;23;20076;-81
2023/08/18 04:38:53;;;;;;;3.70;2.50;;;;;;;18.85;71.60;96725.84;5052882;23;20056;-81
2023/08/18 04:44:44;;;;;;;4.63;3.00;;;;;;;18.78;72.00;96741.00;5423921;23;20042;-80
2023/08/18 04:47:33;;;;;;;4.22;2.28;;;;;;;18.76;71.96;96748.31;4960885;28;20038;-82
2023/08/18 04:50:27;;;;;;;3.75;2.63;;;;;;;18.76;72.33;96754.44;4960379;28;20073;-80
2023/08/18 04:53:25;;;;;;;3.58;2.50;;;;;;;18.80;72.38;96754.78;4976329;28;20094;-79
2023/08/18 04:56:17;;;;;;;5.57;2.97;;;;;;;18.86;72.11;96754.66;4979907;28;20051;-80
2023/08/18 05:02:14;;;;;;;4.15;2.90;;;;;;;18.98;71.92;96754.69;5337239;23;20107;-80
2023/08/18 05:04:50;;;;;;;5.65;3.03;;;;;;;18.92;71.85;96755.59;5201031;23;20104;-80
2023/08/18 05:21:50;;;;;;;3.20;2.70;;;;;;;19.20;72.04;96749.59;5013159;23;20043;-81
2023/08/18 14:39:41;;;;;;;2.60;1.55;;;;;;;30.53;37.56;96659.25;5175845;23;20087;-82
2023/08/18 14:45:51;;;;;;;1.85;1.20;;;;;;;30.41;36.12;96659.00;5016014;23;20038;-81
2023/08/18 17:23:24;;;;;;;1.50;0.68;;;;;;;29.12;43.67;96634.22;3254102;23;19929;-81
2023/08/18 17:25:54;;;;;;;0.90;0.90;;;;;;;29.08;44.22;96633.19;4941177;29;20050;-82
2023/08/18 17:28:22;;;;;;;2.45;1.35;;;;;;;28.99;44.02;96640.38;4940923;29;20051;-81
2023/08/18 17:36:19;;;;;;;3.60;1.70;;;;;;;28.82;43.26;96630.22;4948028;23;20055;-83
2023/08/18 17:38:48;;;;;;;1.98;1.50;;;;;;;28.80;44.37;96630.56;4954188;29;20036;-85
2023/08/18 17:41:16;;;;;;;3.75;1.58;;;;;;;28.79;44.13;96626.25;4963116;28;20072;-84
2023/08/18 17:43:43;;;;;;;1.80;1.30;;;;;;;28.77;44.12;96633.81;4963076;29;20039;-84
2023/08/18 17:46:11;;;;;;;2.35;1.52;;;;;;;28.74;44.91;96635.22;4963217;28;20113;-85
2023/08/18 17:48:38;;;;;;;2.85;1.20;;;;;;;28.72;45.53;96636.59;4963090;28;20044;-85
2023/08/18 17:51:06;;;;;;;3.33;1.70;;;;;;;28.69;46.29;96632.63;4962993;28;20032;-85
2023/08/18 17:53:34;;;;;;;4.53;1.85;;;;;;;28.64;46.12;96638.06;4950807;29;20516;-84
2023/08/18 17:56:03;;;;;;;2.80;1.95;;;;;;;28.58;46.50;96636.59;4941548;29;20047;-84
2023/08/18 17:58:31;;;;;;;3.95;1.95;;;;;;;28.51;46.84;96637.00;4941937;29;20406;-84
2023/08/18 18:00:59;;;;;;;3.17;1.75;;;;;;;28.46;47.25;96633.56;4941475;29;20051;-84
2023/08/18 18:03:27;;;;;;;4.45;2.08;;;;;;;28.38;47.71;96642.28;4941130;29;20490;-85
2023/08/18 18:05:55;;;;;;;2.00;1.80;;;;;;;28.33;47.60;96638.59;4941826;29;20048;-83
2023/08/18 18:08:23;;;;;;;4.65;1.98;;;;;;;28.25;47.83;96633.94;4940839;29;20070;-83
2023/08/18 18:10:51;;;;;;;4.82;2.30;;;;;;;28.18;47.98;96636.19;4939592;29;20052;-82
2023/08/18 18:13:20;;;;;;;3.88;2.00;;;;;;;28.09;48.85;96646.00;4938858;29;20078;-82
2023/08/18 18:15:48;;;;;;;6.10;1.70;;;;;;;28.00;48.70;96642.41;4938420;29;20104;-83
2023/08/18 18:18:15;;;;;;;3.42;2.03;;;;;;;27.88;48.70;96646.34;4939476;29;20051;-84
2023/08/18 18:20:43;;;;;;;3.03;2.05;;;;;;;27.79;49.28;96642.69;4941070;29;20075;-84
2023/08/18 18:23:11;;;;;;;2.75;1.90;;;;;;;27.70;49.57;96649.78;4944219;29;20047;-83
2023/08/18 18:25:38;;;;;;;2.97;1.80;;;;;;;27.61;49.29;96648.84;4947424;29;20574;-84
2023/08/18 18:28:06;;;;;;;2.97;1.67;;;;;;;27.52;49.38;96638.78;4951121;29;20048;-82
2023/08/18 18:30:35;;;;;;;3.67;1.73;;;;;;;27.43;49.58;96645.09;4949482;29;20044;-85
2023/08/18 18:33:03;;;;;;;3.05;1.85;;;;;;;27.33;49.43;96646.00;4959548;28;20052;-84
2023/08/18 18:35:31;;;;;;;1.80;1.67;;;;;;;27.22;49.73;96642.69;4961989;28;20059;-84
2023/08/18 18:37:59;;;;;;;2.78;1.80;;;;;;;27.10;49.70;96645.75;4962256;28;20035;-84
2023/08/18 18:40:26;;;;;;;3.88;1.67;;;;;;;26.97;49.53;96643.78;4962252;28;20063;-83
2023/08/18 18:42:54;;;;;;;2.40;1.70;;;;;;;26.86;49.97;96643.09;4962016;28;20032;-83
2023/08/18 18:45:22;;;;;;;3.88;1.42;;;;;;;26.76;50.14;96647.75;4962000;28;20035;-83
2023/08/18 18:47:51;;;;;;;2.30;1.70;;;;;;;26.63;50.48;96651.91;4962162;28;20040;-82
2023/08/18 18:50:19;;;;;;;3.17;1.90;;;;;;;26.54;50.67;96653.56;4962110;28;20063;-83
2023/08/18 18:52:48;;;;;;;4.95;3.00;;;;;;;26.46;50.65;96665.69;4961809;28;20063;-83
2023/08/18 18:55:16;;;;;;;3.83;3.22;;;;;;;26.39;50.85;96659.88;4961790;28;20052;-82
2023/08/18 18:57:44;;;;;;;3.97;2.25;;;;;;;26.29;51.22;96661.56;4962109;28;20040;-81
2023/08/18 19:00:14;;;;;;;3.63;2.08;;;;;;;26.22;51.63;96666.44;4961871;28;20069;-82
2023/08/18 19:02:42;;;;;;;2.53;1.83;;;;;;;26.12;51.57;96661.16;4961988;28;20047;-81
2023/08/18 19:05:11;;;;;;;4.25;2.35;;;;;;;26.04;51.91;96665.25;4962122;28;20031;-81
2023/08/18 19:07:40;;;;;;;2.58;1.90;;;;;;;25.96;51.82;96679.22;4962356;28;20032;-80
2023/08/18 19:14:03;;;;;;;3.30;1.88;;;;;;;25.75;52.10;96681.19;518239;27;20536;-83
